Terminal Aerodrome Forecast
Issued by NWS

Home | Current Version | Previous Version | Text Only | Print | Product List | Glossary On
Versions: 1 2 3 4 5 6 7 8 9 10 11 12 13 14 15 16
000
FTUS43 KGLD 171727
TAFMCK
TAF
KMCK 171727Z 1718/1818 23008KT P6SM FEW080
     FM172000 20008KT P6SM FEW100 FEW250
     FM180200 17007KT P6SM VCTS SCT090CB BKN200
     FM180400 20007KT P6SM FEW090 SCT200
     FM181100 27005KT P6SM FEW090
     FM181400 35008KT P6SM FEW100=

USA.gov is the U.S. government's official web portal to all federal, state and local government web resources and services.